Terminal Aerodrome Forecast
Issued by NWS Upton, NY

Home | Current Version | Previous Version | Text Only | Print | Product List | Glossary On
Versions: 1 2 3 4 5 6 7 8 9 10 11 12 13 14 15 16 17 18 19 20 21 22 23 24 25 26 27 28 29 30 31 32 33 34 35 36 37 38 39
000
FTUS41 KOKX 270113 CCA
TAFJFK
TAF COR
KJFK 270113Z 2701/2806 23013KT 1SM BR BKN002 WS020/23060KT
     FM270200 25012KT 2SM -SHRA BR SCT002 BKN015
      TEMPO 2702/2703 SCT015 BKN025
     FM270300 31010KT 4SM -RA BR OVC015
     FM270500 35012G20KT 4SM -RA BR BKN015
     FM271400 34009KT 6SM -RA BKN015
     FM271700 33008KT P6SM SCT070 BKN100
     FM280300 34010KT P6SM SCT040 BKN120=

USA.gov is the U.S. government's official web portal to all federal, state and local government web resources and services.